Time;durP1;ratioP1;P1;durP2;ratioP2;P2;SDS_P1;SDS_P2;PMS_P1;PMS_P2;Temp;Humidity;BMP_temperature;BMP_pressure;BME280_temperature;BME280_humidity;BME280_pressure;Samples;Min_cycle;Max_cycle;Signal;HPM_P1;HPM_P2
2022/06/01 00:00:09;;;;;;;3.33;2.40;;;11.70;99.90;;;;;;5091752;28;20056;-77
2022/06/01 00:02:36;;;;;;;3.17;2.00;;;11.60;99.90;;;;;;5091758;28;20027;-77
2022/06/01 00:05:02;;;;;;;2.40;2.17;;;11.60;99.90;;;;;;5091823;28;20081;-79
2022/06/01 00:07:28;;;;;;;3.65;2.80;;;11.60;99.90;;;;;;5092614;28;20484;-79
2022/06/01 00:09:55;;;;;;;3.25;3.03;;;11.60;99.90;;;;;;5091557;28;20065;-78
2022/06/01 00:12:22;;;;;;;4.05;3.67;;;11.70;99.90;;;;;;5092500;28;20111;-77
2022/06/01 00:14:47;;;;;;;3.80;3.42;;;11.60;99.90;;;;;;5073552;28;20031;-77
2022/06/01 00:17:14;;;;;;;4.53;4.15;;;11.60;99.90;;;;;;5091517;28;20391;-80
2022/06/01 00:19:39;;;;;;;4.22;3.83;;;11.60;99.90;;;;;;5093139;28;20024;-77
2022/06/01 00:22:14;;;;;;;4.10;3.80;;;11.60;99.90;;;;;;5091809;28;20383;-78
2022/06/01 00:24:41;;;;;;;3.88;3.58;;;11.60;99.90;;;;;;5078060;28;20024;-79
2022/06/01 00:27:08;;;;;;;3.90;3.67;;;11.60;99.90;;;;;;5091951;28;20043;-80
2022/06/01 00:29:35;;;;;;;3.55;3.25;;;11.60;99.90;;;;;;5086778;28;20049;-80
2022/06/01 00:32:01;;;;;;;4.05;3.75;;;11.60;99.90;;;;;;5082053;28;20478;-78
2022/06/01 00:34:27;;;;;;;4.13;3.33;;;11.60;99.90;;;;;;5091616;28;20088;-78
2022/06/01 00:36:52;;;;;;;3.03;2.75;;;11.60;99.90;;;;;;5091242;28;20023;-79
2022/06/01 00:39:18;;;;;;;3.53;2.75;;;11.60;99.90;;;;;;5091747;28;20097;-78
2022/06/01 00:41:44;;;;;;;2.85;2.65;;;11.60;99.90;;;;;;5094076;28;20398;-77
2022/06/01 00:44:10;;;;;;;3.03;2.50;;;11.50;99.90;;;;;;5095116;28;20028;-77
2022/06/01 00:46:35;;;;;;;3.30;3.00;;;11.50;99.90;;;;;;5096015;28;20031;-78
2022/06/01 00:49:15;;;;;;;4.75;2.85;;;11.50;99.90;;;;;;5095822;28;20046;-77
2022/06/01 00:51:41;;;;;;;3.22;2.97;;;11.50;99.90;;;;;;5095366;28;20021;-77
2022/06/01 00:54:07;;;;;;;4.28;3.55;;;11.40;99.90;;;;;;5095613;28;20497;-79
2022/06/01 00:56:37;;;;;;;3.83;3.53;;;11.50;99.90;;;;;;5095731;28;20020;-80
2022/06/01 00:59:04;;;;;;;;;;;11.30;99.90;;;;;;5095118;28;20055;-77
2022/06/01 01:01:31;;;;;;;4.75;4.18;;;11.30;99.90;;;;;;5095885;28;19908;-77
2022/06/01 01:03:59;;;;;;;5.30;4.90;;;11.30;99.90;;;;;;5095744;28;20020;-78
2022/06/01 01:06:29;;;;;;;6.85;6.25;;;11.30;99.90;;;;;;5095467;28;20050;-79
2022/06/01 01:08:57;;;;;;;8.07;6.45;;;11.30;99.90;;;;;;5081645;28;20094;-79
2022/06/01 01:11:29;;;;;;;7.28;6.75;;;11.40;99.90;;;;;;5095053;28;20066;-78
2022/06/01 01:13:57;;;;;;;7.72;7.13;;;11.40;99.90;;;;;;5080878;28;20019;-78
2022/06/01 01:16:24;;;;;;;8.00;7.22;;;11.40;99.90;;;;;;5095852;28;20423;-78
2022/06/01 01:18:51;;;;;;;8.95;8.20;;;11.40;99.90;;;;;;5094592;28;20028;-77
2022/06/01 01:21:24;;;;;;;8.73;8.00;;;11.40;99.90;;;;;;5095449;28;20028;-77
2022/06/01 01:24:14;;;;;;;8.73;8.07;;;11.40;99.90;;;;;;5095076;28;20544;-77
2022/06/01 01:26:43;;;;;;;8.45;7.68;;;11.50;99.90;;;;;;5094933;28;20080;-78
2022/06/01 01:29:10;;;;;;;8.23;7.57;;;11.40;99.90;;;;;;5093874;28;20039;-77
2022/06/01 01:31:38;;;;;;;7.90;7.20;;;11.40;99.90;;;;;;5082368;28;20392;-78
2022/06/01 01:34:04;;;;;;;6.63;6.03;;;11.40;99.90;;;;;;5094250;28;20035;-77
2022/06/01 01:36:41;;;;;;;6.68;6.18;;;11.40;99.90;;;;;;5080885;28;20024;-77
2022/06/01 01:39:13;;;;;;;7.40;6.60;;;11.40;99.90;;;;;;5093643;28;20028;-77
2022/06/01 01:41:44;;;;;;;6.38;5.88;;;11.40;99.90;;;;;;5095327;28;20038;-77
2022/06/01 01:44:28;;;;;;;7.30;6.18;;;11.40;99.90;;;;;;5094711;28;20024;-78
2022/06/01 01:46:55;;;;;;;7.00;6.28;;;11.40;99.90;;;;;;5093894;28;20038;-77
2022/06/01 01:49:41;;;;;;;8.60;7.80;;;11.40;99.90;;;;;;5094851;28;20024;-77
2022/06/01 01:52:14;;;;;;;9.38;8.57;;;11.40;99.90;;;;;;5094569;28;20039;-78
2022/06/01 01:55:21;;;;;;;9.68;8.77;;;11.40;99.90;;;;;;5094171;28;20473;-78
2022/06/01 01:57:58;;;;;;;10.20;9.35;;;11.30;99.90;;;;;;5045544;28;20063;-78
2022/06/01 02:00:29;;;;;;;11.80;10.63;;;11.20;99.90;;;;;;5094264;28;20048;-77
2022/06/01 02:02:54;;;;;;;11.15;10.23;;;11.10;99.90;;;;;;5094306;28;20019;-79
2022/06/01 02:06:04;;;;;;;11.55;10.40;;;11.00;99.90;;;;;;5093919;28;20047;-77
2022/06/01 02:08:54;;;;;;;13.50;12.05;;;11.00;99.90;;;;;;5086524;28;20035;-78
2022/06/01 02:14:53;;;;;;;12.40;11.27;;;10.80;99.90;;;;;;5093835;28;20027;-77
2022/06/01 02:17:37;;;;;;;13.38;12.07;;;10.70;99.90;;;;;;5094173;28;20468;-77
2022/06/01 02:20:33;;;;;;;14.50;13.10;;;10.70;99.90;;;;;;5093973;28;20122;-78
2022/06/01 02:23:01;;;;;;;14.70;13.25;;;10.70;99.90;;;;;;5093555;28;20020;-78
2022/06/01 02:25:27;;;;;;;14.88;13.48;;;10.70;99.90;;;;;;5094303;28;20024;-77
2022/06/01 02:27:57;;;;;;;15.02;13.52;;;10.80;99.90;;;;;;5093799;28;20027;-79
2022/06/01 02:30:30;;;;;;;16.75;15.05;;;10.80;99.90;;;;;;5093500;28;20082;-79
2022/06/01 02:32:58;;;;;;;15.52;14.00;;;10.80;99.90;;;;;;5090579;28;20048;-79
2022/06/01 02:35:24;;;;;;;16.30;14.60;;;10.90;99.90;;;;;;5083454;28;20552;-78
2022/06/01 02:37:54;;;;;;;15.68;14.15;;;10.90;99.90;;;;;;5093201;28;20103;-78
2022/06/01 02:40:23;;;;;;;15.52;13.93;;;10.90;99.90;;;;;;5094106;28;20031;-79
2022/06/01 02:42:50;;;;;;;16.73;14.35;;;11.00;99.90;;;;;;5093061;28;20570;-79
2022/06/01 02:45:21;;;;;;;17.25;15.45;;;11.00;99.90;;;;;;5093655;28;20017;-77
2022/06/01 02:47:47;;;;;;;;;;;11.00;99.90;;;;;;5094594;28;20129;-77
2022/06/01 02:50:23;;;;;;;15.02;13.55;;;11.00;99.90;;;;;;5093037;28;20352;-77
2022/06/01 02:52:49;;;;;;;15.35;13.73;;;11.00;99.90;;;;;;5093434;28;20066;-79
2022/06/01 02:55:16;;;;;;;15.77;14.05;;;11.00;99.90;;;;;;5093553;28;20074;-78
2022/06/01 02:57:42;;;;;;;14.95;13.40;;;11.00;99.90;;;;;;5092976;28;20024;-78
2022/06/01 03:00:17;;;;;;;15.95;14.35;;;11.00;99.90;;;;;;5092845;28;20127;-79
2022/06/01 03:02:46;;;;;;;13.95;12.75;;;11.10;99.90;;;;;;5093547;28;20393;-78
2022/06/01 03:05:14;;;;;;;13.35;12.15;;;11.10;99.90;;;;;;5091895;28;20042;-78
2022/06/01 03:07:40;;;;;;;4.88;3.30;;;11.20;99.90;;;;;;5093642;28;20024;-82
2022/06/01 03:10:06;;;;;;;2.20;1.30;;;11.00;99.90;;;;;;5094758;28;20058;-86
2022/06/01 03:12:32;;;;;;;2.28;1.60;;;10.40;99.90;;;;;;5093925;28;20023;-82
2022/06/01 03:14:58;;;;;;;3.88;1.90;;;9.90;99.90;;;;;;5094058;28;20070;-81
2022/06/01 03:17:23;;;;;;;2.00;1.40;;;9.60;99.90;;;;;;5093440;28;20028;-80
2022/06/01 03:19:49;;;;;;;2.60;1.75;;;9.40;99.90;;;;;;5082361;28;20036;-81
2022/06/01 03:22:15;;;;;;;1.92;1.70;;;9.30;99.90;;;;;;5089542;28;20016;-80
2022/06/01 03:24:40;;;;;;;3.20;2.05;;;9.20;99.90;;;;;;5093032;28;20073;-79
2022/06/01 03:27:07;;;;;;;1.80;1.50;;;9.20;99.90;;;;;;5092492;28;20063;-81
2022/06/01 03:29:33;;;;;;;1.63;1.52;;;9.10;99.90;;;;;;5093067;28;20111;-79
2022/06/01 03:31:59;;;;;;;2.67;1.88;;;9.00;99.90;;;;;;5092518;28;20024;-81
2022/06/01 03:34:26;;;;;;;2.17;1.80;;;8.90;99.90;;;;;;5092664;28;20020;-81
2022/06/01 03:36:52;;;;;;;2.47;1.90;;;8.90;99.90;;;;;;5092930;28;20337;-80
2022/06/01 03:39:17;;;;;;;3.33;1.88;;;8.80;99.90;;;;;;5093194;28;20034;-81
2022/06/01 03:41:43;;;;;;;2.20;2.00;;;9.10;99.90;;;;;;5092978;28;20027;-79
2022/06/01 03:46:59;;;;;;;3.22;1.75;;;8.80;99.90;;;;;;5092431;28;20077;-79
2022/06/01 03:49:25;;;;;;;5.15;2.20;;;8.70;99.90;;;;;;5093333;28;20527;-79
2022/06/01 03:51:50;;;;;;;2.33;2.13;;;8.70;99.90;;;;;;5093303;28;20020;-79
2022/06/01 03:54:16;;;;;;;1.80;1.70;;;8.80;99.90;;;;;;5092278;28;20119;-79
2022/06/01 03:56:43;;;;;;;3.28;1.77;;;8.70;99.90;;;;;;5092828;28;20468;-79
2022/06/01 03:59:08;;;;;;;4.10;1.75;;;8.70;99.90;;;;;;5092302;28;20048;-79
2022/06/01 04:01:34;;;;;;;2.00;1.80;;;8.70;99.90;;;;;;5093042;28;20055;-78
2022/06/01 04:04:00;;;;;;;2.10;1.90;;;8.70;99.90;;;;;;5077873;28;20020;-79
2022/06/01 04:06:25;;;;;;;1.80;1.70;;;8.80;99.90;;;;;;5092252;28;20462;-80
2022/06/01 04:08:51;;;;;;;3.03;1.80;;;8.80;99.90;;;;;;5091516;28;20024;-79
2022/06/01 04:11:16;;;;;;;4.55;1.70;;;8.80;99.90;;;;;;5092605;28;20024;-79
2022/06/01 04:13:42;;;;;;;2.30;2.20;;;8.80;99.90;;;;;;5092530;28;20016;-79
2022/06/01 04:16:07;;;;;;;4.25;2.38;;;8.80;99.90;;;;;;5090293;28;20043;-79
2022/06/01 04:18:33;;;;;;;4.13;2.55;;;8.90;99.90;;;;;;5092284;28;20411;-80
2022/06/01 04:20:59;;;;;;;2.63;2.42;;;8.90;99.90;;;;;;5091185;28;20024;-80
2022/06/01 04:23:24;;;;;;;2.92;2.72;;;8.90;99.90;;;;;;5091798;28;20139;-80
2022/06/01 04:25:50;;;;;;;3.28;2.80;;;8.90;99.90;;;;;;5091954;28;20028;-78
2022/06/01 04:28:15;;;;;;;3.45;3.20;;;9.00;99.90;;;;;;5091859;28;20431;-79
2022/06/01 04:30:41;;;;;;;5.13;3.42;;;9.00;99.90;;;;;;5091826;28;20126;-79
2022/06/01 04:33:07;;;;;;;3.88;3.40;;;9.00;99.90;;;;;;5091668;28;20524;-79
2022/06/01 04:35:33;;;;;;;4.15;3.78;;;9.00;99.90;;;;;;5091340;28;20054;-79
2022/06/01 04:38:14;;;;;;;3.75;3.45;;;9.10;99.90;;;;;;5091610;28;20027;-79
2022/06/01 04:40:41;;;;;;;;;;;9.20;99.90;;;;;;5092698;28;20031;-79
2022/06/01 04:43:07;;;;;;;4.50;4.10;;;9.20;99.90;;;;;;5090767;28;20054;-79
2022/06/01 04:45:32;;;;;;;4.57;4.28;;;9.30;99.90;;;;;;5080238;28;20029;-78
2022/06/01 04:47:58;;;;;;;4.15;3.85;;;9.30;99.90;;;;;;5089303;28;20065;-80
2022/06/01 04:50:23;;;;;;;4.90;4.07;;;9.40;99.90;;;;;;5090509;28;20076;-79
2022/06/01 04:52:49;;;;;;;4.28;3.88;;;9.50;99.90;;;;;;5092174;28;20024;-79
2022/06/01 04:55:15;;;;;;;3.83;3.53;;;9.50;99.90;;;;;;5093023;28;20430;-78
2022/06/01 04:57:40;;;;;;;4.05;3.63;;;9.60;99.90;;;;;;5081763;28;20477;-78
2022/06/01 05:00:07;;;;;;;4.22;3.92;;;9.60;99.90;;;;;;5087353;28;20491;-79
2022/06/01 05:02:34;;;;;;;4.78;4.38;;;9.70;99.90;;;;;;5083355;28;20082;-80
2022/06/01 05:05:00;;;;;;;4.40;4.00;;;9.80;99.90;;;;;;5089137;28;20020;-80
2022/06/01 05:07:26;;;;;;;4.53;4.15;;;9.90;99.90;;;;;;5090239;28;20134;-80
2022/06/01 05:09:54;;;;;;;5.45;4.95;;;9.90;99.90;;;;;;5089005;28;20036;-80
2022/06/01 05:12:20;;;;;;;5.15;4.75;;;10.10;99.90;;;;;;5089227;28;20048;-80
2022/06/01 05:14:46;;;;;;;5.65;5.25;;;10.10;99.90;;;;;;5089544;28;20441;-81
2022/06/01 05:17:11;;;;;;;6.65;6.05;;;10.20;99.90;;;;;;5090136;28;20028;-80
2022/06/01 05:19:37;;;;;;;7.63;6.80;;;10.30;99.90;;;;;;5089497;28;20032;-80
2022/06/01 05:22:03;;;;;;;7.15;6.55;;;10.40;99.90;;;;;;5089866;28;20035;-79
2022/06/01 05:24:28;;;;;;;7.95;7.35;;;10.50;99.90;;;;;;5089402;28;20039;-80
2022/06/01 05:26:54;;;;;;;8.73;8.02;;;10.60;99.90;;;;;;5089015;28;20035;-79
2022/06/01 05:29:19;;;;;;;11.93;8.55;;;10.70;99.90;;;;;;5091283;28;20063;-79
2022/06/01 05:31:45;;;;;;;9.95;9.07;;;10.70;99.90;;;;;;5094204;28;20055;-80
2022/06/01 05:34:10;;;;;;;9.70;8.75;;;10.80;99.90;;;;;;5093738;28;20028;-79
2022/06/01 05:36:36;;;;;;;11.15;10.02;;;10.80;99.90;;;;;;5094080;28;20408;-80
2022/06/01 05:39:03;;;;;;;15.00;11.75;;;10.90;99.90;;;;;;5092696;28;20492;-80
2022/06/01 05:41:29;;;;;;;12.25;11.00;;;10.90;99.90;;;;;;5091202;28;20497;-80
2022/06/01 05:43:55;;;;;;;13.57;11.10;;;11.10;99.90;;;;;;5093662;28;20024;-80
2022/06/01 05:46:22;;;;;;;13.18;11.77;;;11.10;99.90;;;;;;5092912;28;20395;-81
2022/06/01 05:48:48;;;;;;;14.52;12.07;;;11.20;99.90;;;;;;5090670;28;20048;-80
2022/06/01 05:51:16;;;;;;;12.82;11.63;;;11.30;99.90;;;;;;5094087;28;20105;-80
2022/06/01 05:53:42;;;;;;;15.10;11.73;;;11.30;99.90;;;;;;5092799;28;20048;-79
2022/06/01 05:56:08;;;;;;;17.95;12.18;;;11.50;99.90;;;;;;5093624;28;20112;-80
2022/06/01 05:58:33;;;;;;;14.20;12.68;;;11.50;99.90;;;;;;5093115;28;20178;-80
2022/06/01 06:01:06;;;;;;;12.98;11.70;;;11.60;99.90;;;;;;5093285;28;20020;-80
2022/06/01 06:03:32;;;;;;;15.20;10.38;;;11.70;99.90;;;;;;5094041;28;20103;-79
2022/06/01 06:06:17;;;;;;;15.88;10.77;;;11.70;99.90;;;;;;5075012;28;20024;-80
2022/06/01 06:08:49;;;;;;;14.13;11.55;;;11.90;99.90;;;;;;5093013;28;20036;-79
2022/06/01 06:11:16;;;;;;;12.90;10.85;;;11.90;99.90;;;;;;5093808;28;20488;-79
2022/06/01 06:13:42;;;;;;;14.70;11.00;;;11.90;99.90;;;;;;5090046;28;20107;-80
2022/06/01 06:16:08;;;;;;;12.00;10.05;;;12.00;99.90;;;;;;5093142;28;20039;-79
2022/06/01 06:18:34;;;;;;;12.70;9.88;;;12.10;99.90;;;;;;5093972;28;20020;-80
2022/06/01 06:21:00;;;;;;;11.30;10.10;;;12.10;99.90;;;;;;5092643;28;20075;-79
2022/06/01 06:23:26;;;;;;;15.57;9.63;;;12.10;99.90;;;;;;5093709;28;20481;-79
2022/06/01 06:25:52;;;;;;;12.52;9.13;;;12.20;99.90;;;;;;5092960;28;20093;-79
2022/06/01 06:28:17;;;;;;;10.98;8.52;;;12.20;99.90;;;;;;5092288;28;20035;-80
2022/06/01 06:30:43;;;;;;;8.43;7.60;;;12.30;99.90;;;;;;5091989;28;20032;-78
2022/06/01 06:33:09;;;;;;;10.57;7.90;;;12.30;99.90;;;;;;5092900;28;20024;-79
2022/06/01 06:35:35;;;;;;;8.35;7.60;;;12.30;99.90;;;;;;5090379;28;20036;-78
2022/06/01 06:38:02;;;;;;;9.10;8.20;;;12.30;99.90;;;;;;5091207;28;20537;-78
2022/06/01 06:40:28;;;;;;;9.75;8.32;;;12.30;99.90;;;;;;5091048;28;20099;-79
2022/06/01 06:42:54;;;;;;;11.48;8.85;;;12.40;99.90;;;;;;5091283;28;20032;-80
2022/06/01 06:45:20;;;;;;;11.65;8.88;;;12.40;99.90;;;;;;5093029;28;20020;-78
2022/06/01 06:47:48;;;;;;;10.35;9.30;;;12.50;99.90;;;;;;5092815;28;20016;-78
2022/06/01 06:50:15;;;;;;;10.57;8.63;;;13.00;99.90;;;;;;5091891;28;20040;-79
2022/06/01 06:52:41;;;;;;;10.40;8.90;;;12.70;99.90;;;;;;5092498;28;20115;-79
2022/06/01 06:55:08;;;;;;;11.23;9.07;;;12.80;99.90;;;;;;5092317;28;20122;-79
2022/06/01 06:57:34;;;;;;;11.82;9.10;;;13.00;99.90;;;;;;5092039;28;20039;-80
2022/06/01 07:00:00;;;;;;;11.05;9.90;;;13.30;99.90;;;;;;5092003;28;20040;-80
2022/06/01 07:02:25;;;;;;;9.75;8.40;;;13.40;99.90;;;;;;5091535;28;20016;-79
2022/06/01 07:04:51;;;;;;;10.45;8.18;;;13.60;99.90;;;;;;5091371;28;20408;-79
2022/06/01 07:07:17;;;;;;;8.93;6.78;;;13.60;99.90;;;;;;5092260;28;20024;-79
2022/06/01 07:09:42;;;;;;;9.65;7.32;;;13.60;99.90;;;;;;5092274;28;20032;-80
2022/06/01 07:12:10;;;;;;;8.70;7.80;;;13.50;99.90;;;;;;5090950;28;20483;-80
2022/06/01 07:14:36;;;;;;;8.95;8.05;;;13.50;99.90;;;;;;5092917;28;20027;-78
2022/06/01 07:17:02;;;;;;;9.07;8.27;;;13.40;99.90;;;;;;5089631;28;20023;-80
2022/06/01 07:19:28;;;;;;;10.20;8.63;;;13.50;99.90;;;;;;5090533;28;20024;-80
2022/06/01 07:21:54;;;;;;;9.07;8.18;;;13.60;99.90;;;;;;5092850;28;20032;-80
2022/06/01 07:24:20;;;;;;;9.07;7.82;;;13.60;99.90;;;;;;5092516;28;20069;-78
2022/06/01 07:26:47;;;;;;;9.48;7.45;;;13.50;99.90;;;;;;5093007;28;20397;-80
2022/06/01 07:29:14;;;;;;;9.00;7.57;;;13.40;99.90;;;;;;5093228;28;20032;-79
2022/06/01 07:31:41;;;;;;;10.57;8.65;;;13.40;99.90;;;;;;5088993;28;20057;-81
2022/06/01 07:34:07;;;;;;;11.98;8.68;;;13.40;99.90;;;;;;5090786;28;20024;-80
2022/06/01 07:36:34;;;;;;;9.18;8.10;;;13.30;99.90;;;;;;5092913;28;20016;-81
2022/06/01 07:44:42;;;;;;;12.50;8.23;;;13.50;99.90;;;;;;5040645;28;20536;-81
2022/06/01 07:47:08;;;;;;;8.55;7.85;;;13.60;99.90;;;;;;5091094;28;20514;-82
2022/06/01 07:49:34;;;;;;;8.18;7.35;;;13.70;99.90;;;;;;5097920;28;20044;-81
2022/06/01 07:52:02;;;;;;;9.15;7.38;;;13.90;99.90;;;;;;5088849;28;20020;-80
2022/06/01 07:54:28;;;;;;;7.60;7.03;;;13.90;99.90;;;;;;5093086;28;20054;-79
2022/06/01 07:56:53;;;;;;;8.30;6.82;;;14.00;99.90;;;;;;5089217;28;20107;-73
2022/06/01 07:59:19;;;;;;;7.35;5.55;;;14.30;99.90;;;;;;5104026;28;20081;-72
2022/06/01 08:01:44;;;;;;;7.90;6.13;;;14.40;99.90;;;;;;5105074;28;20023;-74
2022/06/01 08:04:10;;;;;;;6.10;5.60;;;14.50;99.90;;;;;;5100015;28;20024;-72
2022/06/01 08:06:39;;;;;;;6.18;5.63;;;14.50;99.90;;;;;;5107396;28;20053;-73
2022/06/01 08:09:06;;;;;;;4.93;4.53;;;14.50;99.90;;;;;;5106722;28;20030;-73
2022/06/01 08:14:17;;;;;;;4.47;4.18;;;14.90;99.90;;;;;;5104297;28;20107;-73
2022/06/01 08:16:47;;;;;;;5.65;4.22;;;15.10;99.90;;;;;;5103379;28;20036;-73
2022/06/01 08:19:16;;;;;;;4.50;4.03;;;15.30;99.90;;;;;;5105729;28;20035;-74
2022/06/01 08:21:42;;;;;;;4.50;4.10;;;15.40;99.90;;;;;;5108394;28;20016;-72
2022/06/01 08:24:08;;;;;;;4.57;4.00;;;15.50;99.90;;;;;;5108675;28;20828;-74
2022/06/01 08:26:34;;;;;;;3.90;3.58;;;15.50;99.90;;;;;;5106620;28;20032;-74
2022/06/01 08:29:00;;;;;;;3.75;3.30;;;15.50;99.90;;;;;;5104196;28;20533;-73
2022/06/01 08:31:29;;;;;;;5.82;3.35;;;15.40;99.90;;;;;;5101937;28;20039;-73
2022/06/01 08:33:58;;;;;;;3.90;3.38;;;15.30;99.90;;;;;;5103646;28;20042;-73
2022/06/01 08:36:24;;;;;;;3.67;3.38;;;15.30;99.90;;;;;;5100751;28;20028;-74
2022/06/01 08:38:50;;;;;;;5.13;3.20;;;15.30;99.90;;;;;;5104944;28;20019;-72
2022/06/01 08:41:19;;;;;;;7.30;3.33;;;15.30;99.90;;;;;;5101625;28;20023;-77
2022/06/01 08:43:53;;;;;;;3.53;3.20;;;15.40;99.90;;;;;;5098775;28;20115;-74
2022/06/01 08:46:20;;;;;;;3.25;2.97;;;15.40;99.90;;;;;;5103130;28;20048;-74
2022/06/01 08:49:26;;;;;;;3.17;2.85;;;15.40;99.90;;;;;;5106062;28;20058;-74
2022/06/01 08:51:52;;;;;;;3.88;3.03;;;15.40;99.90;;;;;;5024454;28;20038;-73
2022/06/01 08:54:19;;;;;;;3.25;2.50;;;15.20;99.90;;;;;;5094054;28;20230;-74
2022/06/01 08:56:50;;;;;;;3.20;2.90;;;15.20;99.90;;;;;;5106005;28;20375;-74
2022/06/01 08:59:50;;;;;;;3.60;3.30;;;15.20;99.90;;;;;;5103082;28;20059;-74
2022/06/01 09:02:22;;;;;;;3.60;2.90;;;15.30;99.90;;;;;;5104349;28;20048;-74
2022/06/01 09:05:05;;;;;;;3.10;2.78;;;15.40;99.90;;;;;;5109296;28;20510;-74
2022/06/01 09:07:37;;;;;;;4.90;2.58;;;15.50;99.90;;;;;;5096271;28;20016;-74
2022/06/01 09:10:36;;;;;;;2.85;2.28;;;15.60;99.90;;;;;;5105361;28;20032;-73
2022/06/01 09:13:10;;;;;;;2.17;2.00;;;15.70;99.90;;;;;;5105468;28;20041;-74
2022/06/01 09:15:59;;;;;;;2.10;1.90;;;15.80;99.90;;;;;;5102868;28;20024;-73
2022/06/01 09:18:29;;;;;;;2.85;1.88;;;15.90;99.90;;;;;;5104625;28;20028;-73
2022/06/01 09:23:41;;;;;;;2.53;1.58;;;16.10;99.90;;;;;;5101126;28;20042;-73
2022/06/01 09:26:07;;;;;;;3.08;1.70;;;16.10;99.90;;;;;;5108662;28;20031;-73
2022/06/01 09:28:38;;;;;;;3.60;1.70;;;16.10;99.90;;;;;;5103556;28;20372;-73
2022/06/01 09:31:30;;;;;;;3.53;2.00;;;16.10;99.90;;;;;;5108648;28;20035;-74
2022/06/01 09:34:21;;;;;;;2.65;1.73;;;16.10;99.90;;;;;;5086025;28;20043;-74
2022/06/01 09:37:01;;;;;;;6.30;3.85;;;16.30;99.90;;;;;;5100369;28;20502;-73
2022/06/01 09:39:27;;;;;;;1.65;1.40;;;16.50;99.90;;;;;;5100791;28;20027;-73
2022/06/01 09:42:33;;;;;;;2.90;1.38;;;16.60;99.90;;;;;;5100626;28;20023;-73
2022/06/01 09:45:01;;;;;;;1.20;1.10;;;16.50;99.90;;;;;;5096824;28;20339;-74
2022/06/01 09:47:29;;;;;;;5.35;1.10;;;16.10;99.90;;;;;;5105364;28;20305;-72
2022/06/01 09:49:57;;;;;;;1.50;1.40;;;15.90;99.90;;;;;;5103596;28;20144;-73
2022/06/01 09:52:33;;;;;;;1.30;1.20;;;15.80;99.90;;;;;;5108920;28;20086;-73
2022/06/01 09:55:17;;;;;;;2.13;0.90;;;15.90;99.90;;;;;;5108565;28;20020;-72
2022/06/01 09:57:43;;;;;;;1.83;0.90;;;16.00;99.90;;;;;;5099230;28;20035;-73
2022/06/01 10:06:25;;;;;;;1.73;1.05;;;16.50;99.90;;;;;;5094301;28;20118;-73
2022/06/01 10:08:57;;;;;;;1.88;0.90;;;16.60;99.90;;;;;;5100121;28;20030;-74
2022/06/01 10:11:34;;;;;;;1.33;0.98;;;16.90;99.90;;;;;;5096421;28;20024;-74
2022/06/01 10:14:32;;;;;;;1.17;1.00;;;17.00;99.90;;;;;;5094286;28;20023;-74
2022/06/01 10:17:26;;;;;;;1.75;1.20;;;17.00;99.90;;;;;;5098557;28;20023;-74
2022/06/01 10:20:13;;;;;;;1.30;1.20;;;16.80;99.90;;;;;;5099564;28;20076;-74
2022/06/01 10:22:45;;;;;;;1.58;1.48;;;17.00;99.90;;;;;;5098967;28;20431;-73
2022/06/01 10:25:22;;;;;;;1.70;1.60;;;17.10;99.90;;;;;;5096685;28;20052;-72
2022/06/01 10:28:06;;;;;;;1.45;1.35;;;17.20;99.90;;;;;;5107623;28;20119;-74
2022/06/01 10:30:37;;;;;;;1.67;1.58;;;17.00;99.90;;;;;;5103921;28;20459;-74
2022/06/01 10:33:19;;;;;;;1.65;1.55;;;16.70;99.90;;;;;;5108100;28;20028;-72
2022/06/01 10:35:47;;;;;;;1.67;1.58;;;16.60;99.90;;;;;;5109513;28;20027;-73
2022/06/01 10:38:35;;;;;;;3.65;1.88;;;16.50;99.90;;;;;;5110272;28;20027;-72
2022/06/01 10:41:09;;;;;;;2.67;2.47;;;16.70;99.90;;;;;;5101264;28;20440;-72
2022/06/01 10:43:59;;;;;;;2.40;2.20;;;16.60;99.90;;;;;;5104807;28;20024;-73
2022/06/01 10:46:52;;;;;;;2.10;1.90;;;16.50;99.90;;;;;;5105449;28;20047;-74
2022/06/01 10:49:46;;;;;;;6.45;3.22;;;16.60;99.90;;;;;;5107541;28;20028;-73
2022/06/01 10:52:29;;;;;;;2.03;1.55;;;16.60;99.90;;;;;;5102633;28;20518;-75
2022/06/01 10:55:20;;;;;;;5.80;1.83;;;16.60;99.90;;;;;;5099080;28;20032;-72
2022/06/01 10:57:49;;;;;;;2.78;1.10;;;16.50;99.90;;;;;;5098911;28;20015;-74
2022/06/01 11:00:21;;;;;;;3.83;1.42;;;16.20;99.90;;;;;;5102503;28;20450;-74
2022/06/01 11:03:12;;;;;;;1.60;1.50;;;16.60;99.90;;;;;;5108938;28;20016;-74
2022/06/01 11:05:59;;;;;;;3.28;1.48;;;16.80;99.90;;;;;;5104585;28;20061;-73
2022/06/01 11:08:56;;;;;;;2.47;2.15;;;16.80;99.90;;;;;;5103450;28;20027;-73
2022/06/01 11:11:59;;;;;;;1.88;1.77;;;16.90;99.90;;;;;;5106419;28;20035;-73
2022/06/01 11:14:43;;;;;;;2.53;2.33;;;17.00;99.90;;;;;;5103645;28;20030;-72
2022/06/01 11:17:18;;;;;;;3.72;2.00;;;17.00;99.90;;;;;;5106954;28;20460;-73
2022/06/01 11:19:48;;;;;;;2.90;1.95;;;17.00;99.90;;;;;;5102899;28;20404;-73
2022/06/01 11:22:22;;;;;;;2.35;2.15;;;17.10;99.90;;;;;;5106032;28;20030;-73
2022/06/01 11:25:16;;;;;;;1.63;1.30;;;17.10;99.90;;;;;;5108048;28;20034;-73
2022/06/01 11:27:46;;;;;;;1.75;1.40;;;17.10;99.90;;;;;;5104860;28;20467;-73
2022/06/01 11:30:15;;;;;;;;;;;17.20;99.90;;;;;;5109786;28;20114;-73
2022/06/01 11:33:06;;;;;;;5.60;1.50;;;17.20;99.90;;;;;;5106153;28;20022;-73
2022/06/01 11:35:42;;;;;;;6.07;1.40;;;17.30;99.90;;;;;;5108444;28;20059;-73
2022/06/01 11:38:17;;;;;;;1.67;1.52;;;17.30;99.90;;;;;;5104929;28;20031;-73
2022/06/01 11:40:51;;;;;;;1.73;1.50;;;17.30;99.90;;;;;;5108157;28;20050;-72
2022/06/01 11:43:22;;;;;;;0.82;0.82;;;17.20;99.90;;;;;;5103126;28;20582;-72
2022/06/01 11:46:04;;;;;;;6.05;1.30;;;17.20;99.90;;;;;;5098453;28;20036;-73
2022/06/01 11:48:37;;;;;;;6.95;1.45;;;17.20;99.90;;;;;;5104999;28;20016;-73
2022/06/01 11:51:14;;;;;;;1.55;1.45;;;17.30;99.90;;;;;;5099299;28;20123;-75
2022/06/01 11:54:14;;;;;;;1.75;1.30;;;17.30;99.90;;;;;;5108497;28;20084;-73
2022/06/01 11:56:59;;;;;;;2.63;1.47;;;17.30;99.90;;;;;;5106883;28;20028;-74
2022/06/01 11:59:28;;;;;;;1.55;1.35;;;17.40;99.90;;;;;;5106565;28;20054;-74
2022/06/01 12:02:18;;;;;;;0.80;0.80;;;17.40;99.90;;;;;;5105002;28;20539;-74
2022/06/01 12:04:52;;;;;;;1.95;0.90;;;17.20;99.90;;;;;;5105220;28;20027;-73
2022/06/01 12:07:36;;;;;;;1.55;0.75;;;17.10;99.90;;;;;;5105494;28;20047;-74
2022/06/01 12:10:20;;;;;;;2.05;0.85;;;17.30;99.90;;;;;;5105204;28;20058;-74
2022/06/01 12:12:55;;;;;;;1.63;1.02;;;17.30;99.90;;;;;;5103734;28;20016;-74
2022/06/01 12:15:20;;;;;;;1.30;1.20;;;17.40;99.90;;;;;;5105043;28;20046;-74
2022/06/01 12:18:07;;;;;;;3.88;1.50;;;17.30;99.90;;;;;;5105425;28;20015;-73
2022/06/01 12:20:32;;;;;;;2.55;2.17;;;17.30;99.90;;;;;;5103084;28;20024;-73
2022/06/01 12:28:51;;;;;;;2.13;1.98;;;16.90;99.90;;;;;;5105367;28;20391;-72
2022/06/01 12:31:26;;;;;;;5.18;2.92;;;16.80;99.90;;;;;;5102307;28;20040;-74
2022/06/01 12:34:01;;;;;;;3.00;2.75;;;16.80;99.90;;;;;;5107462;28;20387;-73
2022/06/01 12:36:38;;;;;;;2.50;1.45;;;16.90;99.90;;;;;;5103716;28;20026;-74
2022/06/01 12:39:28;;;;;;;1.58;1.48;;;16.90;99.90;;;;;;5104724;28;20042;-73
2022/06/01 12:42:02;;;;;;;2.00;1.77;;;17.00;99.90;;;;;;5104095;28;20070;-73
2022/06/01 12:44:31;;;;;;;2.40;2.20;;;17.20;99.90;;;;;;5087043;28;20832;-73
2022/06/01 12:46:57;;;;;;;2.03;1.40;;;17.30;99.90;;;;;;5093506;28;20036;-73
2022/06/01 12:49:32;;;;;;;2.78;1.30;;;17.40;99.90;;;;;;5087741;28;20624;-74
2022/06/01 12:52:09;;;;;;;2.17;1.77;;;17.60;99.90;;;;;;5095773;28;20069;-72
2022/06/01 12:54:38;;;;;;;4.88;1.80;;;17.70;99.90;;;;;;5103395;28;20028;-73
2022/06/01 12:57:06;;;;;;;6.82;2.20;;;17.70;99.60;;;;;;5105687;28;20030;-74
2022/06/01 12:59:37;;;;;;;4.10;3.70;;;17.80;99.90;;;;;;5103084;28;20099;-75
2022/06/01 13:02:08;;;;;;;;;;;17.70;99.90;;;;;;5105114;28;20031;-73
2022/06/01 13:04:33;;;;;;;6.82;3.78;;;17.50;99.90;;;;;;5106831;28;19910;-73
2022/06/01 13:07:00;;;;;;;4.63;3.80;;;17.40;99.90;;;;;;5105596;28;20467;-73
2022/06/01 13:09:30;;;;;;;4.32;3.75;;;17.30;99.90;;;;;;5104991;28;20389;-73
2022/06/01 13:12:00;;;;;;;4.97;3.30;;;17.20;99.90;;;;;;5103266;28;20019;-72
2022/06/01 13:14:29;;;;;;;4.55;3.95;;;17.10;99.90;;;;;;5104283;28;20015;-73
2022/06/01 13:16:59;;;;;;;6.47;3.85;;;17.00;99.90;;;;;;5102753;28;20491;-73
2022/06/01 13:19:29;;;;;;;3.50;3.20;;;16.90;99.90;;;;;;5102370;28;20032;-72
2022/06/01 13:21:57;;;;;;;3.17;2.90;;;16.00;99.90;;;;;;5105095;28;20039;-73
2022/06/01 13:24:25;;;;;;;4.03;3.45;;;16.50;99.90;;;;;;5104702;28;20028;-72
2022/06/01 13:26:53;;;;;;;3.70;3.40;;;16.40;99.90;;;;;;5107602;28;20104;-73
2022/06/01 13:29:39;;;;;;;7.85;4.50;;;16.60;99.90;;;;;;5102994;28;20467;-73
2022/06/01 13:32:07;;;;;;;4.35;3.67;;;16.90;99.90;;;;;;5105854;28;20118;-73
2022/06/01 13:34:41;;;;;;;3.63;3.33;;;17.00;99.90;;;;;;5107048;28;20043;-73